sensor_id;sensor_type;location;lat;lon;timestamp;temperature;humidity
78475;SHT31;67766;51.964;5.660;2023-11-21T00:02:06;13.4;67.4
78475;SHT31;67766;51.964;5.660;2023-11-21T00:04:36;13.4;67.0
78475;SHT31;67766;51.964;5.660;2023-11-21T00:07:05;13.4;67.3
78475;SHT31;67766;51.964;5.660;2023-11-21T00:09:35;13.4;67.3
78475;SHT31;67766;51.964;5.660;2023-11-21T00:12:08;13.4;67.2
78475;SHT31;67766;51.964;5.660;2023-11-21T00:14:38;13.3;67.3
78475;SHT31;67766;51.964;5.660;2023-11-21T00:17:08;13.3;67.3
78475;SHT31;67766;51.964;5.660;2023-11-21T00:19:39;13.3;67.4
78475;SHT31;67766;51.964;5.660;2023-11-21T00:22:10;13.3;67.2
78475;SHT31;67766;51.964;5.660;2023-11-21T00:24:39;13.3;66.8
78475;SHT31;67766;51.964;5.660;2023-11-21T00:27:09;13.2;67.0
78475;SHT31;67766;51.964;5.660;2023-11-21T00:29:38;13.2;66.8
78475;SHT31;67766;51.964;5.660;2023-11-21T00:32:08;13.2;67.1
78475;SHT31;67766;51.964;5.660;2023-11-21T00:34:40;13.1;67.7
78475;SHT31;67766;51.964;5.660;2023-11-21T00:37:09;13.1;67.9
78475;SHT31;67766;51.964;5.660;2023-11-21T00:39:39;13.1;68.2
78475;SHT31;67766;51.964;5.660;2023-11-21T00:42:08;13.1;68.0
78475;SHT31;67766;51.964;5.660;2023-11-21T00:44:39;13.0;67.9
78475;SHT31;67766;51.964;5.660;2023-11-21T00:47:09;13.0;67.8
78475;SHT31;67766;51.964;5.660;2023-11-21T00:49:38;13.0;67.9
78475;SHT31;67766;51.964;5.660;2023-11-21T00:52:08;13.0;67.8
78475;SHT31;67766;51.964;5.660;2023-11-21T00:54:39;13.0;67.6
78475;SHT31;67766;51.964;5.660;2023-11-21T00:57:09;12.9;67.6
78475;SHT31;67766;51.964;5.660;2023-11-21T00:59:39;12.9;66.9
78475;SHT31;67766;51.964;5.660;2023-11-21T01:02:08;12.9;67.3
78475;SHT31;67766;51.964;5.660;2023-11-21T01:04:38;12.9;67.2
78475;SHT31;67766;51.964;5.660;2023-11-21T01:07:07;12.9;67.4
78475;SHT31;67766;51.964;5.660;2023-11-21T01:09:37;12.9;67.8
78475;SHT31;67766;51.964;5.660;2023-11-21T01:12:07;12.8;67.6
78475;SHT31;67766;51.964;5.660;2023-11-21T01:14:36;12.8;67.5
78475;SHT31;67766;51.964;5.660;2023-11-21T01:17:06;12.8;67.9
78475;SHT31;67766;51.964;5.660;2023-11-21T01:19:35;12.8;67.5
78475;SHT31;67766;51.964;5.660;2023-11-21T01:22:05;12.8;67.4
78475;SHT31;67766;51.964;5.660;2023-11-21T01:24:34;12.8;67.4
78475;SHT31;67766;51.964;5.660;2023-11-21T01:27:04;12.8;67.6
78475;SHT31;67766;51.964;5.660;2023-11-21T01:29:34;12.7;67.3
78475;SHT31;67766;51.964;5.660;2023-11-21T01:32:04;12.7;67.2
78475;SHT31;67766;51.964;5.660;2023-11-21T01:34:35;12.7;67.4
78475;SHT31;67766;51.964;5.660;2023-11-21T01:37:05;12.7;67.2
78475;SHT31;67766;51.964;5.660;2023-11-21T01:39:37;12.7;67.4
78475;SHT31;67766;51.964;5.660;2023-11-21T01:42:09;12.7;67.8
78475;SHT31;67766;51.964;5.660;2023-11-21T01:44:40;12.6;67.5
78475;SHT31;67766;51.964;5.660;2023-11-21T01:47:10;12.6;67.9
78475;SHT31;67766;51.964;5.660;2023-11-21T01:49:42;12.6;68.2
78475;SHT31;67766;51.964;5.660;2023-11-21T01:52:13;12.5;68.0
78475;SHT31;67766;51.964;5.660;2023-11-21T01:54:43;12.5;68.5
78475;SHT31;67766;51.964;5.660;2023-11-21T01:57:15;12.5;69.1
78475;SHT31;67766;51.964;5.660;2023-11-21T01:59:48;12.4;69.9
78475;SHT31;67766;51.964;5.660;2023-11-21T02:02:18;12.4;69.5
78475;SHT31;67766;51.964;5.660;2023-11-21T02:04:47;12.4;69.6
78475;SHT31;67766;51.964;5.660;2023-11-21T02:07:17;12.4;69.7
78475;SHT31;67766;51.964;5.660;2023-11-21T02:09:50;12.4;70.1
78475;SHT31;67766;51.964;5.660;2023-11-21T02:12:20;12.4;69.9
78475;SHT31;67766;51.964;5.660;2023-11-21T02:14:49;12.4;70.0
78475;SHT31;67766;51.964;5.660;2023-11-21T02:17:19;12.4;69.7
78475;SHT31;67766;51.964;5.660;2023-11-21T02:19:48;12.4;69.9
78475;SHT31;67766;51.964;5.660;2023-11-21T02:22:19;12.4;70.0
78475;SHT31;67766;51.964;5.660;2023-11-21T02:24:49;12.4;69.5
78475;SHT31;67766;51.964;5.660;2023-11-21T02:27:20;12.5;69.4
78475;SHT31;67766;51.964;5.660;2023-11-21T02:29:51;12.5;69.7
78475;SHT31;67766;51.964;5.660;2023-11-21T02:32:20;12.5;69.4
78475;SHT31;67766;51.964;5.660;2023-11-21T02:34:53;12.5;69.3
78475;SHT31;67766;51.964;5.660;2023-11-21T02:37:23;12.5;69.2
78475;SHT31;67766;51.964;5.660;2023-11-21T02:39:52;12.5;69.4
78475;SHT31;67766;51.964;5.660;2023-11-21T02:42:22;12.5;68.7
78475;SHT31;67766;51.964;5.660;2023-11-21T02:44:51;12.5;69.0
78475;SHT31;67766;51.964;5.660;2023-11-21T02:47:21;12.5;69.2
78475;SHT31;67766;51.964;5.660;2023-11-21T02:49:51;12.4;68.9
78475;SHT31;67766;51.964;5.660;2023-11-21T02:52:21;12.4;68.7
78475;SHT31;67766;51.964;5.660;2023-11-21T02:54:53;12.4;68.9
78475;SHT31;67766;51.964;5.660;2023-11-21T02:57:24;12.5;68.7
78475;SHT31;67766;51.964;5.660;2023-11-21T02:59:53;12.5;68.4
78475;SHT31;67766;51.964;5.660;2023-11-21T03:02:23;12.4;68.9
78475;SHT31;67766;51.964;5.660;2023-11-21T03:04:52;12.4;69.3
78475;SHT31;67766;51.964;5.660;2023-11-21T03:07:22;12.4;69.2
78475;SHT31;67766;51.964;5.660;2023-11-21T03:09:53;12.4;69.1
78475;SHT31;67766;51.964;5.660;2023-11-21T03:12:24;12.4;69.1
78475;SHT31;67766;51.964;5.660;2023-11-21T03:14:55;12.3;69.1
78475;SHT31;67766;51.964;5.660;2023-11-21T03:17:25;12.3;69.4
78475;SHT31;67766;51.964;5.660;2023-11-21T03:19:54;12.2;69.6
78475;SHT31;67766;51.964;5.660;2023-11-21T03:22:24;12.2;70.4
78475;SHT31;67766;51.964;5.660;2023-11-21T03:24:55;12.2;70.9
78475;SHT31;67766;51.964;5.660;2023-11-21T03:27:25;12.1;70.6
78475;SHT31;67766;51.964;5.660;2023-11-21T03:29:55;12.1;70.2
78475;SHT31;67766;51.964;5.660;2023-11-21T03:32:24;12.1;70.6
78475;SHT31;67766;51.964;5.660;2023-11-21T03:34:58;12.1;71.0
78475;SHT31;67766;51.964;5.660;2023-11-21T03:37:29;12.1;71.2
78475;SHT31;67766;51.964;5.660;2023-11-21T03:39:59;12.1;71.1
78475;SHT31;67766;51.964;5.660;2023-11-21T03:42:30;12.1;71.3
78475;SHT31;67766;51.964;5.660;2023-11-21T03:44:59;12.1;70.9
78475;SHT31;67766;51.964;5.660;2023-11-21T03:47:30;12.1;70.6
78475;SHT31;67766;51.964;5.660;2023-11-21T03:50:00;12.2;70.3
78475;SHT31;67766;51.964;5.660;2023-11-21T03:52:30;12.2;71.1
78475;SHT31;67766;51.964;5.660;2023-11-21T03:55:00;12.2;71.2
78475;SHT31;67766;51.964;5.660;2023-11-21T03:57:30;12.2;70.9
78475;SHT31;67766;51.964;5.660;2023-11-21T04:00:01;12.2;70.3
78475;SHT31;67766;51.964;5.660;2023-11-21T04:02:31;12.2;71.0
78475;SHT31;67766;51.964;5.660;2023-11-21T04:05:00;12.2;70.8
78475;SHT31;67766;51.964;5.660;2023-11-21T04:07:30;12.2;71.2
78475;SHT31;67766;51.964;5.660;2023-11-21T04:10:00;12.2;71.6
78475;SHT31;67766;51.964;5.660;2023-11-21T04:12:30;12.2;71.6
78475;SHT31;67766;51.964;5.660;2023-11-21T04:14:59;12.3;71.4
78475;SHT31;67766;51.964;5.660;2023-11-21T04:17:28;12.3;71.2
78475;SHT31;67766;51.964;5.660;2023-11-21T04:19:58;12.3;71.3
78475;SHT31;67766;51.964;5.660;2023-11-21T04:22:29;12.3;71.5
78475;SHT31;67766;51.964;5.660;2023-11-21T04:24:59;12.4;71.3
78475;SHT31;67766;51.964;5.660;2023-11-21T04:27:30;12.4;71.3
78475;SHT31;67766;51.964;5.660;2023-11-21T04:30:00;12.4;70.4
78475;SHT31;67766;51.964;5.660;2023-11-21T04:32:29;12.5;70.6
78475;SHT31;67766;51.964;5.660;2023-11-21T04:34:58;12.5;70.6
78475;SHT31;67766;51.964;5.660;2023-11-21T04:37:28;12.5;70.2
78475;SHT31;67766;51.964;5.660;2023-11-21T04:39:57;12.5;70.3
78475;SHT31;67766;51.964;5.660;2023-11-21T04:42:27;12.5;70.5
78475;SHT31;67766;51.964;5.660;2023-11-21T04:44:58;12.5;70.4
78475;SHT31;67766;51.964;5.660;2023-11-21T04:47:28;12.5;70.8
78475;SHT31;67766;51.964;5.660;2023-11-21T04:49:58;12.5;70.8
78475;SHT31;67766;51.964;5.660;2023-11-21T04:52:27;12.5;71.0
78475;SHT31;67766;51.964;5.660;2023-11-21T04:54:58;12.5;71.2
78475;SHT31;67766;51.964;5.660;2023-11-21T04:57:29;12.5;71.2
78475;SHT31;67766;51.964;5.660;2023-11-21T04:59:58;12.5;71.0
78475;SHT31;67766;51.964;5.660;2023-11-21T05:02:29;12.5;71.2
78475;SHT31;67766;51.964;5.660;2023-11-21T05:04:59;12.5;71.2
78475;SHT31;67766;51.964;5.660;2023-11-21T05:07:29;12.6;71.1
78475;SHT31;67766;51.964;5.660;2023-11-21T05:09:58;12.6;71.1
78475;SHT31;67766;51.964;5.660;2023-11-21T05:12:31;12.6;71.2
78475;SHT31;67766;51.964;5.660;2023-11-21T05:15:04;12.6;71.1
78475;SHT31;67766;51.964;5.660;2023-11-21T05:17:35;12.6;70.8
78475;SHT31;67766;51.964;5.660;2023-11-21T05:20:05;12.6;70.8
78475;SHT31;67766;51.964;5.660;2023-11-21T05:22:37;12.6;70.3
78475;SHT31;67766;51.964;5.660;2023-11-21T05:25:07;12.6;70.6
78475;SHT31;67766;51.964;5.660;2023-11-21T05:27:38;12.6;70.9
78475;SHT31;67766;51.964;5.660;2023-11-21T05:30:08;12.6;71.2
78475;SHT31;67766;51.964;5.660;2023-11-21T05:32:39;12.6;70.9
78475;SHT31;67766;51.964;5.660;2023-11-21T05:35:10;12.6;71.4
78475;SHT31;67766;51.964;5.660;2023-11-21T05:37:43;12.6;71.5
78475;SHT31;67766;51.964;5.660;2023-11-21T05:40:13;12.6;71.7
78475;SHT31;67766;51.964;5.660;2023-11-21T05:42:44;12.6;71.7
78475;SHT31;67766;51.964;5.660;2023-11-21T05:45:14;12.6;72.0
78475;SHT31;67766;51.964;5.660;2023-11-21T05:47:46;12.6;71.7
78475;SHT31;67766;51.964;5.660;2023-11-21T05:50:17;12.6;71.8
78475;SHT31;67766;51.964;5.660;2023-11-21T05:52:47;12.6;71.5
78475;SHT31;67766;51.964;5.660;2023-11-21T05:55:16;12.7;71.5
78475;SHT31;67766;51.964;5.660;2023-11-21T05:57:48;12.7;71.4
78475;SHT31;67766;51.964;5.660;2023-11-21T06:00:18;12.7;71.2
78475;SHT31;67766;51.964;5.660;2023-11-21T06:02:48;12.7;71.2
78475;SHT31;67766;51.964;5.660;2023-11-21T06:05:22;12.7;71.0
78475;SHT31;67766;51.964;5.660;2023-11-21T06:07:53;12.7;71.1
78475;SHT31;67766;51.964;5.660;2023-11-21T06:10:23;12.7;71.1
78475;SHT31;67766;51.964;5.660;2023-11-21T06:12:53;12.7;71.0
78475;SHT31;67766;51.964;5.660;2023-11-21T06:15:23;12.7;70.8
78475;SHT31;67766;51.964;5.660;2023-11-21T06:17:52;12.8;70.9
78475;SHT31;67766;51.964;5.660;2023-11-21T06:20:22;12.8;70.5
78475;SHT31;67766;51.964;5.660;2023-11-21T06:22:52;12.7;71.1
78475;SHT31;67766;51.964;5.660;2023-11-21T06:25:22;12.7;71.3
78475;SHT31;67766;51.964;5.660;2023-11-21T06:27:51;12.7;71.1
78475;SHT31;67766;51.964;5.660;2023-11-21T06:30:21;12.7;71.6
78475;SHT31;67766;51.964;5.660;2023-11-21T06:32:50;12.7;71.7
78475;SHT31;67766;51.964;5.660;2023-11-21T06:35:20;12.7;71.8
78475;SHT31;67766;51.964;5.660;2023-11-21T06:37:50;12.7;72.1
78475;SHT31;67766;51.964;5.660;2023-11-21T06:40:20;12.7;72.2
78475;SHT31;67766;51.964;5.660;2023-11-21T06:42:49;12.7;72.2
78475;SHT31;67766;51.964;5.660;2023-11-21T06:45:21;12.7;72.4
78475;SHT31;67766;51.964;5.660;2023-11-21T06:47:50;12.7;72.4
78475;SHT31;67766;51.964;5.660;2023-11-21T06:50:20;12.7;72.3
78475;SHT31;67766;51.964;5.660;2023-11-21T06:52:49;12.7;71.9
78475;SHT31;67766;51.964;5.660;2023-11-21T06:55:19;12.7;72.0
78475;SHT31;67766;51.964;5.660;2023-11-21T06:57:48;12.7;71.9
78475;SHT31;67766;51.964;5.660;2023-11-21T07:00:19;12.7;71.9
78475;SHT31;67766;51.964;5.660;2023-11-21T07:02:49;12.7;72.0
78475;SHT31;67766;51.964;5.660;2023-11-21T07:05:20;12.7;72.1
78475;SHT31;67766;51.964;5.660;2023-11-21T07:07:50;12.8;72.3
78475;SHT31;67766;51.964;5.660;2023-11-21T07:10:21;12.8;72.4
78475;SHT31;67766;51.964;5.660;2023-11-21T07:12:50;12.8;72.3
78475;SHT31;67766;51.964;5.660;2023-11-21T07:15:20;12.8;72.4
78475;SHT31;67766;51.964;5.660;2023-11-21T07:17:50;12.8;72.3
78475;SHT31;67766;51.964;5.660;2023-11-21T07:20:21;12.8;72.2
78475;SHT31;67766;51.964;5.660;2023-11-21T07:22:50;12.8;72.6
78475;SHT31;67766;51.964;5.660;2023-11-21T07:25:20;12.8;72.1
78475;SHT31;67766;51.964;5.660;2023-11-21T07:27:50;12.8;72.3
78475;SHT31;67766;51.964;5.660;2023-11-21T07:30:20;12.8;72.7
78475;SHT31;67766;51.964;5.660;2023-11-21T07:32:50;12.8;72.9
78475;SHT31;67766;51.964;5.660;2023-11-21T07:35:19;12.8;72.8
78475;SHT31;67766;51.964;5.660;2023-11-21T07:37:49;12.8;72.9
78475;SHT31;67766;51.964;5.660;2023-11-21T07:40:18;12.9;72.8
78475;SHT31;67766;51.964;5.660;2023-11-21T07:42:49;12.9;72.7
78475;SHT31;67766;51.964;5.660;2023-11-21T07:45:19;13.0;72.7
78475;SHT31;67766;51.964;5.660;2023-11-21T07:47:49;13.0;72.6
78475;SHT31;67766;51.964;5.660;2023-11-21T07:50:21;13.0;72.4
78475;SHT31;67766;51.964;5.660;2023-11-21T07:52:50;13.1;72.4
78475;SHT31;67766;51.964;5.660;2023-11-21T07:55:21;13.1;72.2
78475;SHT31;67766;51.964;5.660;2023-11-21T07:57:52;13.1;72.2
78475;SHT31;67766;51.964;5.660;2023-11-21T08:00:21;13.2;72.0
78475;SHT31;67766;51.964;5.660;2023-11-21T08:02:51;13.2;71.7
78475;SHT31;67766;51.964;5.660;2023-11-21T08:05:21;13.2;72.0
78475;SHT31;67766;51.964;5.660;2023-11-21T08:07:50;13.2;72.0
78475;SHT31;67766;51.964;5.660;2023-11-21T08:10:20;13.2;71.9
78475;SHT31;67766;51.964;5.660;2023-11-21T08:12:50;13.2;72.1
78475;SHT31;67766;51.964;5.660;2023-11-21T08:15:20;13.2;72.1
78475;SHT31;67766;51.964;5.660;2023-11-21T08:17:52;13.2;72.0
78475;SHT31;67766;51.964;5.660;2023-11-21T08:20:22;13.2;72.3
78475;SHT31;67766;51.964;5.660;2023-11-21T08:22:52;13.2;72.4
78475;SHT31;67766;51.964;5.660;2023-11-21T08:25:24;13.2;72.6
78475;SHT31;67766;51.964;5.660;2023-11-21T08:27:54;13.2;72.4
78475;SHT31;67766;51.964;5.660;2023-11-21T08:30:24;13.2;72.8
78475;SHT31;67766;51.964;5.660;2023-11-21T08:32:56;13.2;72.7
78475;SHT31;67766;51.964;5.660;2023-11-21T08:35:26;13.2;72.8
78475;SHT31;67766;51.964;5.660;2023-11-21T08:37:56;13.1;72.8
78475;SHT31;67766;51.964;5.660;2023-11-21T08:40:25;13.1;73.2
78475;SHT31;67766;51.964;5.660;2023-11-21T08:42:55;13.1;73.3
78475;SHT31;67766;51.964;5.660;2023-11-21T08:45:26;13.1;73.3
78475;SHT31;67766;51.964;5.660;2023-11-21T08:47:55;13.1;73.4
78475;SHT31;67766;51.964;5.660;2023-11-21T08:50:25;13.1;73.6
78475;SHT31;67766;51.964;5.660;2023-11-21T08:52:54;13.1;73.5
78475;SHT31;67766;51.964;5.660;2023-11-21T08:55:24;13.1;73.5
78475;SHT31;67766;51.964;5.660;2023-11-21T08:57:53;13.2;73.4
78475;SHT31;67766;51.964;5.660;2023-11-21T09:00:23;13.2;73.5
78475;SHT31;67766;51.964;5.660;2023-11-21T09:02:52;13.2;73.4
78475;SHT31;67766;51.964;5.660;2023-11-21T09:05:21;13.2;73.4
78475;SHT31;67766;51.964;5.660;2023-11-21T09:07:51;13.2;73.5
78475;SHT31;67766;51.964;5.660;2023-11-21T09:10:20;13.2;73.6
78475;SHT31;67766;51.964;5.660;2023-11-21T09:12:52;13.2;73.7
78475;SHT31;67766;51.964;5.660;2023-11-21T09:15:22;13.2;73.7
78475;SHT31;67766;51.964;5.660;2023-11-21T09:17:52;13.3;73.5
78475;SHT31;67766;51.964;5.660;2023-11-21T09:20:22;13.3;73.6
78475;SHT31;67766;51.964;5.660;2023-11-21T09:22:52;13.3;73.9
78475;SHT31;67766;51.964;5.660;2023-11-21T09:25:22;13.3;74.0
78475;SHT31;67766;51.964;5.660;2023-11-21T09:27:52;13.3;74.1
78475;SHT31;67766;51.964;5.660;2023-11-21T09:30:21;13.3;74.2
78475;SHT31;67766;51.964;5.660;2023-11-21T09:32:52;13.3;74.4
78475;SHT31;67766;51.964;5.660;2023-11-21T09:35:22;13.4;74.5
78475;SHT31;67766;51.964;5.660;2023-11-21T09:37:51;13.4;74.5
78475;SHT31;67766;51.964;5.660;2023-11-21T09:40:22;13.4;74.4
78475;SHT31;67766;51.964;5.660;2023-11-21T09:42:55;13.4;74.6
78475;SHT31;67766;51.964;5.660;2023-11-21T09:45:32;13.4;74.6
78475;SHT31;67766;51.964;5.660;2023-11-21T09:48:04;13.4;74.8
78475;SHT31;67766;51.964;5.660;2023-11-21T09:50:36;13.5;74.6
78475;SHT31;67766;51.964;5.660;2023-11-21T09:53:12;13.5;74.7
78475;SHT31;67766;51.964;5.660;2023-11-21T09:55:45;13.5;74.8
78475;SHT31;67766;51.964;5.660;2023-11-21T09:58:16;13.5;75.2
78475;SHT31;67766;51.964;5.660;2023-11-21T10:00:47;13.6;75.4
78475;SHT31;67766;51.964;5.660;2023-11-21T10:03:17;13.6;75.3
78475;SHT31;67766;51.964;5.660;2023-11-21T10:05:50;13.6;75.3
78475;SHT31;67766;51.964;5.660;2023-11-21T10:08:22;13.7;75.1
78475;SHT31;67766;51.964;5.660;2023-11-21T10:10:56;13.7;74.9
78475;SHT31;67766;51.964;5.660;2023-11-21T10:13:29;13.7;74.6
78475;SHT31;67766;51.964;5.660;2023-11-21T10:16:00;13.7;74.5
78475;SHT31;67766;51.964;5.660;2023-11-21T10:18:34;13.7;74.4
78475;SHT31;67766;51.964;5.660;2023-11-21T10:21:07;13.8;74.4
78475;SHT31;67766;51.964;5.660;2023-11-21T10:23:37;13.7;74.4
78475;SHT31;67766;51.964;5.660;2023-11-21T10:26:11;13.7;74.2
78475;SHT31;67766;51.964;5.660;2023-11-21T10:28:56;13.7;74.2
78475;SHT31;67766;51.964;5.660;2023-11-21T10:31:27;13.7;74.1
78475;SHT31;67766;51.964;5.660;2023-11-21T10:34:14;13.7;74.0
78475;SHT31;67766;51.964;5.660;2023-11-21T10:36:45;13.7;73.9
78475;SHT31;67766;51.964;5.660;2023-11-21T10:39:17;13.7;74.1
78475;SHT31;67766;51.964;5.660;2023-11-21T10:41:47;13.7;74.2
78475;SHT31;67766;51.964;5.660;2023-11-21T10:44:18;13.7;74.2
78475;SHT31;67766;51.964;5.660;2023-11-21T10:46:52;13.7;74.1
78475;SHT31;67766;51.964;5.660;2023-11-21T10:49:25;13.7;74.1
78475;SHT31;67766;51.964;5.660;2023-11-21T10:51:55;13.7;73.9
78475;SHT31;67766;51.964;5.660;2023-11-21T10:54:26;13.7;74.1
78475;SHT31;67766;51.964;5.660;2023-11-21T10:56:57;13.7;74.0
78475;SHT31;67766;51.964;5.660;2023-11-21T10:59:30;13.7;73.9
78475;SHT31;67766;51.964;5.660;2023-11-21T11:02:01;13.7;74.0
78475;SHT31;67766;51.964;5.660;2023-11-21T11:04:32;13.7;73.8
78475;SHT31;67766;51.964;5.660;2023-11-21T11:07:02;13.7;74.0
78475;SHT31;67766;51.964;5.660;2023-11-21T11:09:33;13.7;74.3
78475;SHT31;67766;51.964;5.660;2023-11-21T11:12:03;13.7;74.2
78475;SHT31;67766;51.964;5.660;2023-11-21T11:14:33;13.7;74.0
78475;SHT31;67766;51.964;5.660;2023-11-21T11:17:04;13.7;74.2
78475;SHT31;67766;51.964;5.660;2023-11-21T11:19:36;13.7;73.6
78475;SHT31;67766;51.964;5.660;2023-11-21T11:22:19;13.7;73.6
78475;SHT31;67766;51.964;5.660;2023-11-21T11:25:06;13.7;73.4
78475;SHT31;67766;51.964;5.660;2023-11-21T11:27:52;13.6;73.5
78475;SHT31;67766;51.964;5.660;2023-11-21T11:30:41;13.6;73.7
78475;SHT31;67766;51.964;5.660;2023-11-21T11:33:18;13.6;73.4
78475;SHT31;67766;51.964;5.660;2023-11-21T11:36:02;13.6;73.3
78475;SHT31;67766;51.964;5.660;2023-11-21T11:38:34;13.6;73.4
78475;SHT31;67766;51.964;5.660;2023-11-21T11:41:06;13.6;73.4
78475;SHT31;67766;51.964;5.660;2023-11-21T11:43:38;13.6;74.2
78475;SHT31;67766;51.964;5.660;2023-11-21T11:46:11;13.6;73.7
78475;SHT31;67766;51.964;5.660;2023-11-21T11:48:42;13.6;73.8
78475;SHT31;67766;51.964;5.660;2023-11-21T11:51:14;13.6;73.7
78475;SHT31;67766;51.964;5.660;2023-11-21T11:53:46;13.6;73.7
78475;SHT31;67766;51.964;5.660;2023-11-21T11:56:27;13.6;74.2
78475;SHT31;67766;51.964;5.660;2023-11-21T11:58:59;13.6;73.8
78475;SHT31;67766;51.964;5.660;2023-11-21T12:01:34;13.6;73.9
78475;SHT31;67766;51.964;5.660;2023-11-21T12:04:25;13.6;74.0
78475;SHT31;67766;51.964;5.660;2023-11-21T12:07:05;13.6;74.4
78475;SHT31;67766;51.964;5.660;2023-11-21T12:09:37;13.6;74.3
78475;SHT31;67766;51.964;5.660;2023-11-21T12:12:09;13.6;74.1
78475;SHT31;67766;51.964;5.660;2023-11-21T12:14:38;13.6;74.2
78475;SHT31;67766;51.964;5.660;2023-11-21T12:17:08;13.7;73.9
78475;SHT31;67766;51.964;5.660;2023-11-21T12:19:38;13.7;73.8
78475;SHT31;67766;51.964;5.660;2023-11-21T12:22:07;13.7;73.9
78475;SHT31;67766;51.964;5.660;2023-11-21T12:24:37;13.7;74.0
78475;SHT31;67766;51.964;5.660;2023-11-21T12:27:06;13.7;74.0
78475;SHT31;67766;51.964;5.660;2023-11-21T12:29:35;13.7;73.7
78475;SHT31;67766;51.964;5.660;2023-11-21T12:32:06;13.7;73.3
78475;SHT31;67766;51.964;5.660;2023-11-21T12:34:35;13.7;73.3
78475;SHT31;67766;51.964;5.660;2023-11-21T12:37:08;13.7;72.9
78475;SHT31;67766;51.964;5.660;2023-11-21T12:39:38;13.7;73.4
78475;SHT31;67766;51.964;5.660;2023-11-21T12:42:07;13.8;73.3
78475;SHT31;67766;51.964;5.660;2023-11-21T12:44:38;13.8;73.7
78475;SHT31;67766;51.964;5.660;2023-11-21T12:47:16;13.8;73.6
78475;SHT31;67766;51.964;5.660;2023-11-21T12:49:46;13.8;73.6
78475;SHT31;67766;51.964;5.660;2023-11-21T12:52:16;13.8;73.3
78475;SHT31;67766;51.964;5.660;2023-11-21T12:54:47;13.8;73.1
78475;SHT31;67766;51.964;5.660;2023-11-21T12:57:17;13.8;72.7
78475;SHT31;67766;51.964;5.660;2023-11-21T12:59:47;13.8;72.9
78475;SHT31;67766;51.964;5.660;2023-11-21T13:02:21;13.8;72.5
78475;SHT31;67766;51.964;5.660;2023-11-21T13:04:53;13.7;72.5
78475;SHT31;67766;51.964;5.660;2023-11-21T13:07:25;13.7;72.6
78475;SHT31;67766;51.964;5.660;2023-11-21T13:09:55;13.7;72.7
78475;SHT31;67766;51.964;5.660;2023-11-21T13:12:25;13.7;72.8
78475;SHT31;67766;51.964;5.660;2023-11-21T13:14:55;13.7;72.9
78475;SHT31;67766;51.964;5.660;2023-11-21T13:17:26;13.7;73.1
78475;SHT31;67766;51.964;5.660;2023-11-21T13:19:56;13.7;72.5
78475;SHT31;67766;51.964;5.660;2023-11-21T13:22:25;13.7;72.7
78475;SHT31;67766;51.964;5.660;2023-11-21T13:24:55;13.7;72.4
78475;SHT31;67766;51.964;5.660;2023-11-21T13:27:24;13.7;72.3
78475;SHT31;67766;51.964;5.660;2023-11-21T13:29:57;13.7;72.2
78475;SHT31;67766;51.964;5.660;2023-11-21T13:32:27;13.7;72.2
78475;SHT31;67766;51.964;5.660;2023-11-21T13:34:57;13.7;71.7
78475;SHT31;67766;51.964;5.660;2023-11-21T13:37:27;13.7;72.0
78475;SHT31;67766;51.964;5.660;2023-11-21T13:39:59;13.7;71.8
78475;SHT31;67766;51.964;5.660;2023-11-21T13:42:31;13.8;72.1
78475;SHT31;67766;51.964;5.660;2023-11-21T13:45:01;13.8;72.0
78475;SHT31;67766;51.964;5.660;2023-11-21T13:47:33;13.8;71.8
78475;SHT31;67766;51.964;5.660;2023-11-21T13:50:04;13.8;72.0
78475;SHT31;67766;51.964;5.660;2023-11-21T13:52:39;13.8;71.7
78475;SHT31;67766;51.964;5.660;2023-11-21T13:55:10;13.8;71.7
78475;SHT31;67766;51.964;5.660;2023-11-21T13:57:43;13.8;71.5
78475;SHT31;67766;51.964;5.660;2023-11-21T14:00:17;13.8;71.3
78475;SHT31;67766;51.964;5.660;2023-11-21T14:03:03;13.9;70.9
78475;SHT31;67766;51.964;5.660;2023-11-21T14:05:40;13.9;71.0
78475;SHT31;67766;51.964;5.660;2023-11-21T14:08:10;13.9;71.1
78475;SHT31;67766;51.964;5.660;2023-11-21T14:10:44;13.9;71.1
78475;SHT31;67766;51.964;5.660;2023-11-21T14:13:18;13.9;71.1
78475;SHT31;67766;51.964;5.660;2023-11-21T14:15:51;13.9;70.9
78475;SHT31;67766;51.964;5.660;2023-11-21T14:18:25;13.8;71.2
78475;SHT31;67766;51.964;5.660;2023-11-21T14:21:00;13.8;71.0
78475;SHT31;67766;51.964;5.660;2023-11-21T14:23:32;13.8;70.5
78475;SHT31;67766;51.964;5.660;2023-11-21T14:26:03;13.8;70.7
78475;SHT31;67766;51.964;5.660;2023-11-21T14:28:33;13.7;70.9
78475;SHT31;67766;51.964;5.660;2023-11-21T14:31:03;13.7;71.3
78475;SHT31;67766;51.964;5.660;2023-11-21T14:33:33;13.6;71.4
78475;SHT31;67766;51.964;5.660;2023-11-21T14:36:02;13.6;71.7
78475;SHT31;67766;51.964;5.660;2023-11-21T14:38:35;13.6;71.6
78475;SHT31;67766;51.964;5.660;2023-11-21T14:41:06;13.6;71.6
78475;SHT31;67766;51.964;5.660;2023-11-21T14:43:38;13.5;72.0
78475;SHT31;67766;51.964;5.660;2023-11-21T14:46:09;13.5;71.1
78475;SHT31;67766;51.964;5.660;2023-11-21T14:48:41;13.5;71.1
78475;SHT31;67766;51.964;5.660;2023-11-21T14:51:14;13.5;71.1
78475;SHT31;67766;51.964;5.660;2023-11-21T14:53:58;13.5;70.9
78475;SHT31;67766;51.964;5.660;2023-11-21T14:56:34;13.4;71.1
78475;SHT31;67766;51.964;5.660;2023-11-21T14:59:07;13.4;70.6
78475;SHT31;67766;51.964;5.660;2023-11-21T15:01:42;13.4;70.9
78475;SHT31;67766;51.964;5.660;2023-11-21T15:04:18;13.4;70.8
78475;SHT31;67766;51.964;5.660;2023-11-21T15:06:55;13.4;70.7
78475;SHT31;67766;51.964;5.660;2023-11-21T15:09:26;13.4;70.7
78475;SHT31;67766;51.964;5.660;2023-11-21T15:12:08;13.3;70.3
78475;SHT31;67766;51.964;5.660;2023-11-21T15:14:46;13.3;70.1
78475;SHT31;67766;51.964;5.660;2023-11-21T15:17:17;13.3;70.0
78475;SHT31;67766;51.964;5.660;2023-11-21T15:19:50;13.2;69.7
78475;SHT31;67766;51.964;5.660;2023-11-21T15:22:20;13.2;70.0
78475;SHT31;67766;51.964;5.660;2023-11-21T15:24:49;13.2;70.1
78475;SHT31;67766;51.964;5.660;2023-11-21T15:27:21;13.2;69.6
78475;SHT31;67766;51.964;5.660;2023-11-21T15:29:53;13.1;69.4
78475;SHT31;67766;51.964;5.660;2023-11-21T15:32:24;13.1;68.7
78475;SHT31;67766;51.964;5.660;2023-11-21T15:34:54;13.1;68.4
78475;SHT31;67766;51.964;5.660;2023-11-21T15:37:24;13.0;68.0
78475;SHT31;67766;51.964;5.660;2023-11-21T15:39:56;13.0;68.3
78475;SHT31;67766;51.964;5.660;2023-11-21T15:42:27;12.9;67.7
78475;SHT31;67766;51.964;5.660;2023-11-21T15:44:56;12.9;67.4
78475;SHT31;67766;51.964;5.660;2023-11-21T15:47:26;12.9;66.7
78475;SHT31;67766;51.964;5.660;2023-11-21T15:49:56;12.8;66.8
78475;SHT31;67766;51.964;5.660;2023-11-21T15:52:26;12.8;67.1
78475;SHT31;67766;51.964;5.660;2023-11-21T15:54:56;12.8;67.1
78475;SHT31;67766;51.964;5.660;2023-11-21T15:57:25;12.7;67.4
78475;SHT31;67766;51.964;5.660;2023-11-21T15:59:56;12.7;66.6
78475;SHT31;67766;51.964;5.660;2023-11-21T16:02:25;12.7;66.6
78475;SHT31;67766;51.964;5.660;2023-11-21T16:04:54;12.7;66.5
78475;SHT31;67766;51.964;5.660;2023-11-21T16:07:25;12.7;66.4
78475;SHT31;67766;51.964;5.660;2023-11-21T16:09:54;12.7;66.3
78475;SHT31;67766;51.964;5.660;2023-11-21T16:12:24;12.6;66.0
78475;SHT31;67766;51.964;5.660;2023-11-21T16:14:54;12.6;66.0
78475;SHT31;67766;51.964;5.660;2023-11-21T16:17:23;12.6;65.0
78475;SHT31;67766;51.964;5.660;2023-11-21T16:19:54;12.6;64.8
78475;SHT31;67766;51.964;5.660;2023-11-21T16:22:23;12.6;64.5
78475;SHT31;67766;51.964;5.660;2023-11-21T16:24:55;12.6;64.4
78475;SHT31;67766;51.964;5.660;2023-11-21T16:27:25;12.5;63.8